Aviation Digital Data Service (ADDS)

Output produced by METARs form (1312 UTC 23 January 2019)
found at http://www.aviationweather.gov/metar/data/
 
Forecast for: GVBA (RABIL AIRPORT , CV)
Text: TAF GVBA 231100Z 2312/2418 03015KT 9999 SCT015
Forecast period: 1200 UTC 23 January 2019 to 1800 UTC 24 January 2019
Forecast type: FROM: standard forecast or significant change
Winds: from the NNE (30 degrees) at 17 MPH (15 knots; 7.7 m/s)
Visibility: 6 or more miles 10+ km)
Ceiling: at least 12,000 feet AGL
Clouds: scattered clouds at 1500 feet AGL
Weather: no significant weather forecast for this period
Text: TEMPO 2400/2406 03005KT 8000
Forecast period: 0000 to 0600 UTC 24 January 2019
Forecast type: TEMPORARY: The following changes expected for less than half the time period
Winds: from the NNE (30 degrees) at 6 MPH (5 knots; 2.6 m/s)
Visibility: 5 miles (8 km)
Ceiling: unknown
Clouds: missing
Weather: no significant weather forecast for this period